Time;durP1;ratioP1;P1;durP2;ratioP2;P2;SDS_P1;SDS_P2;PMS_P1;PMS_P2;Temp;Humidity;BMP_temperature;BMP_pressure;BME280_temperature;BME280_humidity;BME280_pressure;Samples;Min_cycle;Max_cycle;Signal;HPM_P1;HPM_P2
2022/01/22 00:00:26;;;;;;;7.25;3.13;;;;;;;3.08;93.90;101733.31;8175167;35;20199;-77
2022/01/22 00:05:29;;;;;;;5.00;3.40;;;;;;;3.04;93.99;101741.38;8173064;35;20160;-77
2022/01/22 00:10:34;;;;;;;6.57;4.32;;;;;;;2.97;94.22;101736.25;8172209;35;20251;-76
2022/01/22 00:15:41;;;;;;;5.55;3.05;;;;;;;2.90;94.73;101735.53;8171872;35;20184;-76
2022/01/22 00:20:46;;;;;;;7.82;3.95;;;;;;;3.16;93.74;101734.81;8172051;35;20634;-76
2022/01/22 00:25:49;;;;;;;5.82;3.90;;;;;;;3.05;93.89;101737.78;8172341;35;20966;-77
2022/01/22 00:30:54;;;;;;;5.03;3.45;;;;;;;3.13;92.70;101744.69;8172006;35;20152;-77
2022/01/22 00:35:58;;;;;;;5.57;3.60;;;;;;;3.07;93.28;101729.75;8201251;35;20270;-77
2022/01/22 00:41:01;;;;;;;7.65;3.63;;;;;;;3.21;93.54;101726.69;8194328;35;20256;-76
2022/01/22 00:46:05;;;;;;;6.70;3.97;;;;;;;3.32;93.16;101729.06;8184745;35;20295;-77
2022/01/22 00:51:08;;;;;;;5.82;3.65;;;;;;;3.37;92.90;101730.66;8172991;35;20287;-76
2022/01/22 00:56:13;;;;;;;4.93;3.17;;;;;;;3.16;93.52;101728.66;8171613;35;20282;-75
2022/01/22 01:01:17;;;;;;;5.30;3.70;;;;;;;3.10;93.63;101731.47;8191164;35;20192;-76
2022/01/22 01:06:21;;;;;;;7.03;4.20;;;;;;;3.28;93.48;101733.59;8141008;35;1115735;-77
2022/01/22 01:11:26;;;;;;;6.57;4.30;;;;;;;3.45;92.83;101735.75;8172566;35;20192;-75
2022/01/22 01:16:56;;;;;;;7.38;4.45;;;;;;;3.12;94.33;101733.16;8176511;35;20191;-76
2022/01/22 01:32:52;;;;;;;7.88;4.28;;;;;;;3.50;92.62;101733.81;8171674;35;21870;-76
2022/01/22 01:37:57;;;;;;;8.82;4.32;;;;;;;3.06;94.90;101730.69;8182789;35;20222;-78
2022/01/22 01:43:08;;;;;;;8.00;4.45;;;;;;;3.49;93.92;101724.13;8173779;35;20179;-76
2022/01/22 01:48:18;;;;;;;8.80;4.90;;;;;;;3.22;93.74;101739.94;8170279;35;21610;-78
2022/01/22 01:53:31;;;;;;;10.20;4.65;;;;;;;3.53;92.87;101723.09;8170350;35;20585;-76
2022/01/22 01:58:34;;;;;;;9.60;4.35;;;;;;;3.73;91.83;101726.03;8169582;35;21194;-76
2022/01/22 02:03:39;;;;;;;7.68;4.57;;;;;;;3.37;93.30;101728.00;8189851;35;20194;-76
2022/01/22 02:08:55;;;;;;;12.25;6.15;;;;;;;3.69;92.44;101740.31;8189639;35;20194;-76
2022/01/22 02:14:09;;;;;;;11.88;6.22;;;;;;;3.66;92.83;101748.38;8169036;35;20183;-76
2022/01/22 02:24:50;;;;;;;18.67;7.97;;;;;;;3.72;93.03;101745.53;8189505;35;20241;-76
2022/01/22 02:29:53;;;;;;;13.75;6.03;;;;;;;3.65;92.96;101744.00;8170205;35;20184;-77
2022/01/22 02:35:23;;;;;;;8.57;5.15;;;;;;;3.40;93.91;101749.19;8192691;35;20484;-77
2022/01/22 02:40:31;;;;;;;9.05;5.53;;;;;;;3.77;93.02;101752.50;8168939;35;20607;-77
2022/01/22 02:45:35;;;;;;;9.05;5.35;;;;;;;3.60;93.87;101745.94;8189498;35;20152;-76
2022/01/22 02:50:38;;;;;;;8.13;5.05;;;;;;;3.82;91.98;101750.59;8169643;35;20195;-77
2022/01/22 02:55:45;;;;;;;7.75;5.35;;;;;;;3.66;93.15;101752.84;8169045;35;20749;-77
2022/01/22 03:00:49;;;;;;;6.72;4.53;;;;;;;3.62;93.20;101757.38;8188084;35;20152;-77
2022/01/22 03:05:54;;;;;;;10.38;5.00;;;;;;;3.94;91.75;101755.50;8189014;35;20749;-76
2022/01/22 03:11:01;;;;;;;7.68;4.43;;;;;;;4.08;91.46;101760.38;8188525;35;20713;-76
2022/01/22 03:16:12;;;;;;;8.35;4.03;;;;;;;3.94;92.16;101768.81;8172416;35;20183;-76
2022/01/22 03:21:32;;;;;;;9.93;4.80;;;;;;;3.76;93.58;101767.59;8169083;35;20244;-76
2022/01/22 03:31:58;;;;;;;7.82;4.65;;;;;;;4.15;91.57;101768.13;8167212;35;20170;-76
2022/01/22 03:37:01;;;;;;;7.00;3.90;;;;;;;4.01;91.46;101774.81;8188279;35;20167;-76
2022/01/22 03:42:06;;;;;;;6.63;3.97;;;;;;;4.18;92.00;101778.66;8167286;35;20156;-76
2022/01/22 03:47:10;;;;;;;7.05;4.15;;;;;;;4.02;92.92;101782.72;8187790;35;21323;-76
2022/01/22 03:52:14;;;;;;;6.97;4.28;;;;;;;4.27;91.39;101789.94;8166488;35;20258;-76
2022/01/22 03:57:21;;;;;;;7.45;3.75;;;;;;;4.16;92.12;101792.94;8166651;35;20206;-76
2022/01/22 04:08:09;;;;;;;8.93;4.38;;;;;;;4.16;92.06;101790.28;8167103;35;20195;-76
2022/01/22 04:13:16;;;;;;;8.88;4.18;;;;;;;4.12;92.78;101794.81;8167865;35;20538;-76
2022/01/22 04:29:03;;;;;;;7.25;3.83;;;;;;;4.36;91.76;101789.63;8166327;35;20246;-76
2022/01/22 04:34:06;;;;;;;8.32;4.07;;;;;;;4.14;91.79;101800.97;8167401;35;20160;-76
2022/01/22 04:39:11;;;;;;;8.15;4.10;;;;;;;3.91;94.50;101793.69;8168474;35;20180;-76
2022/01/22 04:44:15;;;;;;;8.38;4.15;;;;;;;4.07;92.79;101796.75;8171792;35;20686;-76
2022/01/22 05:00:00;;;;;;;8.57;4.75;;;;;;;4.30;92.20;101796.00;8170010;35;20447;-76
2022/01/22 05:05:07;;;;;;;7.00;4.22;;;;;;;4.37;92.45;101794.91;8191074;35;20576;-75
2022/01/22 05:10:27;;;;;;;6.78;3.95;;;;;;;4.17;93.22;101800.88;8190864;35;20199;-76
2022/01/22 05:15:32;;;;;;;8.13;4.65;;;;;;;4.26;93.34;101804.16;8192049;35;20160;-75
2022/01/22 05:20:44;;;;;;;6.97;4.07;;;;;;;4.47;92.26;101807.91;8192612;35;20476;-77
2022/01/22 05:25:53;;;;;;;7.43;3.80;;;;;;;4.32;92.68;101810.13;8190426;35;20202;-77
2022/01/22 05:31:05;;;;;;;7.85;3.63;;;;;;;4.39;92.67;101811.69;8190281;35;20156;-77
2022/01/22 05:41:58;;;;;;;6.05;3.35;;;;;;;4.26;93.00;101812.13;8144642;35;20741;-76
2022/01/22 05:47:06;;;;;;;6.45;3.53;;;;;;;4.31;92.50;101831.50;8156426;35;20187;-76
2022/01/22 05:52:14;;;;;;;5.97;3.65;;;;;;;4.47;91.84;101824.75;8169472;35;20243;-76
2022/01/22 06:02:39;;;;;;;7.80;3.45;;;;;;;4.54;92.01;101839.59;8169028;35;20341;-77
2022/01/22 06:07:45;;;;;;;4.90;2.92;;;;;;;4.54;91.66;101836.94;8170381;35;20255;-75
2022/01/22 06:13:09;;;;;;;6.97;3.05;;;;;;;4.53;91.48;101851.16;8170157;35;20204;-75
2022/01/22 06:18:14;;;;;;;6.25;3.83;;;;;;;4.62;91.63;101853.50;8168591;35;20199;-75
2022/01/22 06:23:19;;;;;;;5.10;3.53;;;;;;;4.35;92.18;101852.59;8191220;35;20329;-77
2022/01/22 06:28:24;;;;;;;5.25;3.22;;;;;;;4.36;92.40;101853.47;8191452;35;20164;-76
2022/01/22 06:33:29;;;;;;;5.68;3.40;;;;;;;4.15;92.92;101863.88;8169492;35;20238;-76
2022/01/22 06:38:33;;;;;;;6.57;3.85;;;;;;;4.52;91.95;101876.03;8169338;35;20164;-76
2022/01/22 06:43:42;;;;;;;5.20;3.40;;;;;;;4.46;91.56;101876.22;8170246;35;20522;-76
2022/01/22 06:49:04;;;;;;;5.43;3.28;;;;;;;4.43;91.88;101886.09;8170268;35;20144;-76
2022/01/22 06:54:33;;;;;;;5.25;3.28;;;;;;;4.28;92.08;101893.66;8170155;35;20206;-76
2022/01/22 06:59:36;;;;;;;4.15;2.90;;;;;;;4.54;91.57;101899.94;8170796;35;20561;-77
2022/01/22 07:04:41;;;;;;;4.93;2.97;;;;;;;4.49;91.24;101886.75;8171054;35;20191;-76
2022/01/22 07:10:10;;;;;;;4.80;3.00;;;;;;;4.39;91.74;101895.97;8192813;35;20226;-75
2022/01/22 07:15:14;;;;;;;8.05;3.95;;;;;;;4.41;90.86;101907.41;8178477;35;20187;-76
2022/01/22 07:20:26;;;;;;;2.80;2.42;;;;;;;4.48;91.10;101913.44;8193621;35;20198;-76
2022/01/22 07:25:31;;;;;;;7.15;2.70;;;;;;;4.55;90.97;101918.53;8172357;35;20191;-77
2022/01/22 07:30:45;;;;;;;5.47;3.58;;;;;;;4.45;90.86;101934.84;8190442;35;20191;-76
2022/01/22 07:35:49;;;;;;;6.47;3.00;;;;;;;4.51;90.78;101932.84;8191525;35;20251;-76
2022/01/22 07:40:53;;;;;;;5.22;2.65;;;;;;;4.70;90.50;101937.59;8188308;35;20162;-76
2022/01/22 07:46:02;;;;;;;4.47;2.75;;;;;;;4.51;90.57;101943.47;8188977;35;20636;-77
2022/01/22 07:51:08;;;;;;;6.35;3.10;;;;;;;4.62;90.74;101941.34;8166143;35;20418;-76
2022/01/22 07:56:12;;;;;;;5.70;3.35;;;;;;;4.67;90.29;101938.56;8167242;35;20194;-76
2022/01/22 08:01:16;;;;;;;5.13;3.53;;;;;;;4.55;90.21;101945.16;8166148;35;20340;-75
2022/01/22 08:06:39;;;;;;;4.93;3.40;;;;;;;4.20;91.55;101932.00;8167688;35;20278;-77
2022/01/22 08:12:01;;;;;;;4.82;3.00;;;;;;;4.61;90.54;101934.31;8169024;35;20780;-75
2022/01/22 08:17:05;;;;;;;4.32;3.28;;;;;;;4.67;90.42;101938.56;8192304;35;20948;-76
2022/01/22 08:22:12;;;;;;;4.22;2.88;;;;;;;4.85;89.92;101945.06;8190739;35;20192;-77
2022/01/22 08:27:40;;;;;;;4.28;2.80;;;;;;;4.52;90.81;101955.84;8171020;35;20144;-77
2022/01/22 08:33:07;;;;;;;5.10;2.90;;;;;;;4.44;90.64;101957.00;8175901;35;21670;-78
2022/01/22 08:38:12;;;;;;;3.55;2.83;;;;;;;4.65;90.12;101955.50;8168791;35;20194;-76
2022/01/22 08:43:15;;;;;;;4.85;2.80;;;;;;;4.70;90.26;101965.06;8188944;35;20191;-76
2022/01/22 08:48:20;;;;;;;3.10;2.65;;;;;;;4.91;89.58;101965.31;8189676;35;20144;-75
2022/01/22 08:53:28;;;;;;;4.88;3.92;;;;;;;5.37;88.89;101964.69;8189985;35;20663;-75
2022/01/22 08:58:33;;;;;;;3.72;3.00;;;;;;;5.09;88.67;101966.53;8169016;35;20820;-75
2022/01/22 09:03:45;;;;;;;4.35;3.08;;;;;;;5.06;87.64;101962.19;8189941;35;20202;-75
2022/01/22 09:09:19;;;;;;;7.88;4.10;;;;;;;4.95;88.13;101975.81;8189614;35;20152;-75
2022/01/22 09:14:41;;;;;;;6.82;3.90;;;;;;;4.75;88.03;101975.59;8170969;35;21021;-75
2022/01/22 09:19:46;;;;;;;4.40;3.10;;;;;;;4.96;88.41;101990.00;8196283;35;20195;-75
2022/01/22 09:24:54;;;;;;;5.05;3.55;;;;;;;4.97;88.71;101989.09;8172766;35;20196;-75
2022/01/22 09:29:58;;;;;;;5.22;4.47;;;;;;;4.91;89.04;101995.50;8168647;35;20202;-75
2022/01/22 09:35:01;;;;;;;5.50;3.35;;;;;;;4.79;89.83;101995.88;8169440;35;20156;-75
2022/01/22 09:40:33;;;;;;;4.40;2.45;;;;;;;5.08;89.16;101999.44;8153422;35;20140;-75
2022/01/22 09:45:54;;;;;;;6.75;3.72;;;;;;;5.44;88.24;102000.88;8169205;35;20549;-75
2022/01/22 09:51:36;;;;;;;4.38;2.97;;;;;;;5.34;88.38;101990.56;8160653;35;20353;-74
2022/01/22 09:57:04;;;;;;;5.13;3.00;;;;;;;5.08;88.79;101999.44;8167845;35;20198;-75
2022/01/22 10:02:22;;;;;;;5.22;3.03;;;;;;;5.28;89.57;101995.19;8172623;35;20187;-77
2022/01/22 10:07:27;;;;;;;6.03;2.97;;;;;;;5.40;89.28;102003.69;8173122;35;20950;-76
2022/01/22 10:12:52;;;;;;;3.58;2.50;;;;;;;5.81;87.27;102020.94;8179076;35;20340;-76
2022/01/22 10:18:08;;;;;;;5.70;2.63;;;;;;;5.66;87.13;102013.47;8175810;35;20298;-76
2022/01/22 10:23:19;;;;;;;2.95;2.45;;;;;;;5.60;86.72;102011.91;8174429;35;20732;-75
2022/01/22 10:28:25;;;;;;;3.50;2.25;;;;;;;6.07;86.73;102019.16;8170378;35;20191;-75
2022/01/22 10:33:32;;;;;;;4.72;2.50;;;;;;;6.42;85.19;102007.16;8169199;35;20737;-75
2022/01/22 10:38:57;;;;;;;3.10;2.40;;;;;;;6.20;85.21;102011.53;8167876;35;20164;-75
2022/01/22 10:44:02;;;;;;;4.13;2.70;;;;;;;5.89;85.71;102005.53;8169387;35;20229;-75
2022/01/22 10:49:10;;;;;;;2.08;1.83;;;;;;;5.62;87.66;102020.72;8168161;35;20521;-74
2022/01/22 10:54:15;;;;;;;3.00;2.00;;;;;;;6.22;87.14;102020.38;8169365;35;20548;-74
2022/01/22 10:59:21;;;;;;;3.72;2.58;;;;;;;6.09;86.44;102019.97;8168025;35;20187;-74
2022/01/22 11:04:27;;;;;;;2.50;2.00;;;;;;;5.18;89.15;102020.38;8167041;35;20554;-75
2022/01/22 11:09:30;;;;;;;5.30;3.00;;;;;;;5.37;89.26;102025.13;8168222;35;20614;-74
2022/01/22 11:14:37;;;;;;;5.10;3.10;;;;;;;5.40;89.23;102025.91;8168947;35;20182;-74
2022/01/22 11:19:46;;;;;;;3.20;2.72;;;;;;;5.91;88.19;102024.16;8168891;35;20573;-75
2022/01/22 11:24:51;;;;;;;3.85;2.95;;;;;;;5.80;88.29;102027.19;8170015;35;20178;-74
2022/01/22 11:30:01;;;;;;;4.07;2.63;;;;;;;5.72;86.47;102027.47;8188672;35;20188;-74
2022/01/22 11:35:08;;;;;;;9.00;5.00;;;;;;;5.42;88.49;102016.03;8168536;35;20220;-74
2022/01/22 11:40:15;;;;;;;4.88;3.40;;;;;;;5.46;88.55;102028.34;8167268;35;20230;-74
2022/01/22 11:45:29;;;;;;;6.63;4.05;;;;;;;5.29;89.55;102028.03;8167763;35;20239;-73
2022/01/22 11:50:33;;;;;;;5.50;3.58;;;;;;;5.52;89.43;102027.28;8191536;35;21037;-75
2022/01/22 11:55:36;;;;;;;5.13;3.65;;;;;;;5.61;88.97;102024.28;8173822;35;20198;-75
2022/01/22 12:00:42;;;;;;;7.05;3.95;;;;;;;5.76;88.55;102011.34;8173548;35;20483;-75
2022/01/22 12:06:08;;;;;;;6.47;3.90;;;;;;;5.84;88.04;102026.19;8173951;35;20839;-75
2022/01/22 12:17:13;;;;;;;3.70;2.83;;;;;;;5.59;86.04;102027.94;8173341;35;20614;-75
2022/01/22 12:22:31;;;;;;;4.97;3.70;;;;;;;5.63;86.29;102032.25;8172826;35;20187;-75
2022/01/22 12:27:44;;;;;;;4.10;2.70;;;;;;;5.16;86.59;102042.69;8192563;35;20258;-74
2022/01/22 12:32:52;;;;;;;3.58;2.42;;;;;;;5.06;87.85;102034.97;8171375;35;20156;-76
2022/01/22 12:38:18;;;;;;;3.92;2.45;;;;;;;5.56;88.11;102030.72;8173929;35;20212;-74
2022/01/22 12:43:28;;;;;;;4.82;2.97;;;;;;;5.30;88.74;102040.44;8174133;35;20243;-76
2022/01/22 12:48:36;;;;;;;3.33;2.70;;;;;;;6.05;87.89;102045.00;8174343;35;20136;-75
2022/01/22 12:53:49;;;;;;;4.03;2.63;;;;;;;5.91;86.46;102035.69;8173975;35;20148;-75
2022/01/22 12:58:52;;;;;;;4.57;3.28;;;;;;;5.97;85.09;102037.28;8173457;35;21559;-75
2022/01/22 13:04:00;;;;;;;8.23;6.28;;;;;;;6.21;84.74;102034.66;8172828;35;20196;-74
2022/01/22 13:09:11;;;;;;;6.93;5.45;;;;;;;5.67;84.95;102039.22;8189814;35;20266;-74
2022/01/22 13:14:16;;;;;;;7.85;7.05;;;;;;;5.27;87.47;102045.88;8171003;35;20155;-75
2022/01/22 13:19:22;;;;;;;2.70;2.50;;;;;;;5.30;87.70;102045.78;8170131;35;22151;-75
2022/01/22 13:24:28;;;;;;;2.55;2.35;;;;;;;5.18;88.36;102043.50;8171649;35;20540;-75
2022/01/22 13:29:34;;;;;;;2.47;2.22;;;;;;;4.88;89.74;102055.94;8171666;35;20975;-74
2022/01/22 13:35:09;;;;;;;2.58;2.38;;;;;;;4.86;89.63;102039.16;8176392;35;20847;-74
2022/01/22 13:40:31;;;;;;;3.25;2.42;;;;;;;5.19;88.90;102031.94;8197099;35;20199;-74
2022/01/22 13:51:14;;;;;;;3.60;2.35;;;;;;;4.96;88.88;102051.25;8175503;35;20588;-74
2022/01/22 13:56:18;;;;;;;2.72;2.05;;;;;;;4.87;89.39;102052.41;8190336;35;20219;-74
2022/01/22 14:01:39;;;;;;;4.25;3.08;;;;;;;4.94;89.27;102048.66;8169186;35;20455;-73
2022/01/22 14:06:46;;;;;;;3.15;2.50;;;;;;;5.18;88.51;102041.69;8169101;35;20260;-74
2022/01/22 14:12:11;;;;;;;3.97;2.50;;;;;;;5.48;88.36;102057.63;8168994;35;20187;-74
2022/01/22 14:17:16;;;;;;;4.82;2.80;;;;;;;5.50;88.51;102063.78;8170256;35;20183;-74
2022/01/22 14:22:20;;;;;;;4.28;2.92;;;;;;;5.56;87.79;102052.91;8168847;35;20279;-74
2022/01/22 14:27:23;;;;;;;4.05;3.30;;;;;;;5.29;87.86;102060.00;8170062;35;20148;-74
2022/01/22 14:32:27;;;;;;;5.90;3.15;;;;;;;5.44;87.78;102066.66;8169461;35;20809;-75
2022/01/22 14:37:33;;;;;;;4.35;3.03;;;;;;;5.48;87.46;102061.16;8170502;35;20778;-75
2022/01/22 14:48:05;;;;;;;5.68;3.70;;;;;;;4.86;88.01;102057.81;8182269;35;20230;-75
2022/01/22 14:53:10;;;;;;;4.68;3.88;;;;;;;5.01;88.12;102052.03;8171125;35;21558;-75
2022/01/22 14:58:13;;;;;;;7.32;4.18;;;;;;;4.98;88.25;102049.44;8171047;35;20146;-74
2022/01/22 15:03:16;;;;;;;7.55;3.50;;;;;;;4.95;88.18;102045.06;8169637;35;20136;-74
2022/01/22 15:08:21;;;;;;;4.75;3.15;;;;;;;5.09;87.92;102050.00;8169337;35;20195;-74
2022/01/22 15:13:24;;;;;;;4.00;3.15;;;;;;;4.87;87.55;102036.44;8189464;35;21567;-74
2022/01/22 15:18:50;;;;;;;7.18;3.30;;;;;;;4.78;87.68;102050.91;8168982;35;21404;-74
2022/01/22 15:23:51;;;;;;;5.65;3.13;;;;;;;4.88;87.38;102054.16;8170585;35;20589;-75
2022/01/22 15:28:55;;;;;;;4.13;3.03;;;;;;;4.90;87.61;102067.44;8170710;35;20713;-75
2022/01/22 15:34:12;;;;;;;5.20;2.50;;;;;;;4.67;87.59;102068.13;8170609;35;20255;-75
2022/01/22 15:39:17;;;;;;;3.58;2.55;;;;;;;4.65;87.93;102065.50;8161419;35;20187;-75
2022/01/22 15:44:21;;;;;;;3.58;2.95;;;;;;;4.68;88.07;102057.44;8170596;35;20187;-75
2022/01/22 15:49:25;;;;;;;3.58;2.65;;;;;;;4.64;88.09;102046.94;8170480;35;20210;-75
2022/01/22 15:54:30;;;;;;;5.40;3.92;;;;;;;4.88;87.84;102059.47;8188565;35;21413;-75
2022/01/22 15:59:33;;;;;;;6.60;2.40;;;;;;;4.56;87.99;102066.66;8167805;35;20195;-74
2022/01/22 16:04:36;;;;;;;3.33;2.63;;;;;;;4.71;87.68;102067.13;8168239;35;20674;-74
2022/01/22 16:09:40;;;;;;;3.80;3.00;;;;;;;4.55;88.03;102066.69;8169005;35;20203;-74
2022/01/22 16:14:56;;;;;;;6.13;4.45;;;;;;;4.54;88.09;102067.63;8168774;35;20222;-74
2022/01/22 16:20:00;;;;;;;4.88;4.10;;;;;;;4.68;87.60;102078.72;8168179;35;20191;-76
2022/01/22 16:25:06;;;;;;;5.63;4.88;;;;;;;4.72;87.88;102079.53;8168305;35;20575;-75
2022/01/22 16:30:10;;;;;;;6.72;3.72;;;;;;;4.76;87.34;102083.81;8168053;35;21856;-74
2022/01/22 16:35:15;;;;;;;5.50;4.15;;;;;;;4.55;87.83;102080.00;8169237;35;20215;-74
2022/01/22 16:40:24;;;;;;;6.72;4.00;;;;;;;4.52;88.06;102077.44;8171678;35;20190;-74
2022/01/22 16:56:19;;;;;;;5.85;3.92;;;;;;;4.75;87.37;102106.06;8170786;35;20255;-75
2022/01/22 17:01:26;;;;;;;5.13;3.53;;;;;;;4.50;87.74;102112.09;8170741;35;20243;-74
2022/01/22 17:06:30;;;;;;;5.93;4.38;;;;;;;4.57;87.41;102107.44;8170688;35;20278;-74
2022/01/22 17:11:41;;;;;;;5.53;3.38;;;;;;;4.30;87.78;102103.75;8170550;35;20303;-74
2022/01/22 17:16:44;;;;;;;5.75;3.50;;;;;;;4.25;88.11;102117.22;8170885;35;20346;-74
2022/01/22 17:21:48;;;;;;;6.35;4.60;;;;;;;4.50;88.33;102120.06;8169824;35;20203;-74
2022/01/22 17:26:53;;;;;;;4.75;3.38;;;;;;;4.39;88.90;102127.47;8170707;35;20251;-74
2022/01/22 17:31:56;;;;;;;4.03;3.28;;;;;;;4.46;88.89;102128.16;8185446;35;20258;-74
2022/01/22 17:36:59;;;;;;;5.63;4.13;;;;;;;4.44;89.09;102122.00;8172263;35;20593;-74
2022/01/22 17:42:04;;;;;;;5.03;3.72;;;;;;;4.48;89.09;102134.34;8170234;35;20192;-74
2022/01/22 17:47:07;;;;;;;6.50;3.83;;;;;;;4.49;88.92;102128.94;8170273;35;20247;-74
2022/01/22 17:52:11;;;;;;;6.90;4.38;;;;;;;4.35;89.26;102120.47;8169514;35;20144;-74
2022/01/22 17:57:15;;;;;;;6.78;4.57;;;;;;;4.39;89.57;102125.69;8169758;35;20206;-74
2022/01/22 18:02:19;;;;;;;7.15;4.38;;;;;;;4.27;89.69;102136.66;8170317;35;21085;-74
2022/01/22 18:07:22;;;;;;;7.40;4.43;;;;;;;4.44;89.68;102128.19;8171107;35;20504;-74
2022/01/22 18:12:27;;;;;;;7.22;4.97;;;;;;;4.41;89.80;102125.63;8170418;35;20539;-74
2022/01/22 18:17:30;;;;;;;6.65;4.97;;;;;;;4.53;89.69;102130.63;8169784;35;20547;-74
2022/01/22 18:22:33;;;;;;;9.73;6.43;;;;;;;4.21;89.87;102133.28;8169664;35;20499;-76
2022/01/22 18:27:38;;;;;;;11.98;6.90;;;;;;;4.34;90.24;102137.38;8169473;35;21044;-74
2022/01/22 18:32:41;;;;;;;13.85;8.18;;;;;;;4.37;90.06;102145.28;8169344;35;20709;-73
2022/01/22 18:37:44;;;;;;;15.73;9.15;;;;;;;4.27;90.87;102136.66;8168919;35;20319;-74
2022/01/22 18:42:55;;;;;;;14.82;8.43;;;;;;;4.12;91.17;102145.91;8187950;35;20164;-74
2022/01/22 18:48:01;;;;;;;17.77;9.85;;;;;;;4.26;90.98;102139.38;8170144;35;20851;-75
2022/01/22 18:53:04;;;;;;;15.40;8.32;;;;;;;4.25;90.75;102145.59;8168883;35;20758;-75
2022/01/22 18:58:08;;;;;;;17.58;9.95;;;;;;;4.11;91.41;102152.16;8168767;35;20191;-73
2022/01/22 19:03:11;;;;;;;16.33;8.90;;;;;;;4.37;90.47;102161.25;8168283;35;20507;-73
2022/01/22 19:08:14;;;;;;;15.95;8.45;;;;;;;4.07;90.79;102165.56;8168987;35;20406;-75
2022/01/22 19:13:18;;;;;;;18.83;9.20;;;;;;;4.03;90.73;102171.88;8168542;35;20475;-76
2022/01/22 19:18:23;;;;;;;22.95;11.13;;;;;;;4.11;90.72;102156.59;8172340;35;20195;-73
2022/01/22 19:23:41;;;;;;;15.45;8.95;;;;;;;4.11;90.59;102157.47;8184012;35;20730;-74
2022/01/22 19:28:46;;;;;;;19.35;9.35;;;;;;;4.00;90.75;102150.66;8171784;35;20489;-74
2022/01/22 19:33:51;;;;;;;19.48;10.52;;;;;;;4.00;90.55;102148.88;8169488;35;20724;-74
2022/01/22 19:38:54;;;;;;;21.25;10.07;;;;;;;4.10;90.22;102154.84;8170358;35;20247;-76
2022/01/22 19:44:03;;;;;;;20.55;9.95;;;;;;;3.68;90.34;102153.22;8174180;35;20812;-74
2022/01/22 19:49:08;;;;;;;22.17;11.35;;;;;;;4.05;89.89;102151.44;8173860;35;20479;-75
2022/01/22 19:54:11;;;;;;;20.30;10.52;;;;;;;4.16;89.80;102160.88;8168170;35;20202;-74
2022/01/22 19:59:16;;;;;;;21.75;9.57;;;;;;;4.27;89.54;102157.94;8167864;35;21050;-75
2022/01/22 20:04:19;;;;;;;19.73;9.50;;;;;;;3.99;89.49;102157.78;8171842;35;20194;-74
2022/01/22 20:09:22;;;;;;;20.80;9.63;;;;;;;3.90;89.23;102164.22;8173566;35;20251;-74
2022/01/22 20:14:28;;;;;;;14.63;8.00;;;;;;;4.07;88.92;102166.44;8175701;35;21111;-74
2022/01/22 20:19:31;;;;;;;15.00;7.57;;;;;;;4.02;89.12;102156.84;8194395;35;20246;-75
2022/01/22 20:24:54;;;;;;;13.30;7.55;;;;;;;3.98;88.66;102164.03;8174024;35;20492;-75
2022/01/22 20:29:58;;;;;;;15.80;7.30;;;;;;;4.12;88.66;102166.34;8172029;35;20684;-75
2022/01/22 20:35:03;;;;;;;15.65;8.35;;;;;;;3.83;89.12;102167.06;8171590;35;20184;-75
2022/01/22 20:40:08;;;;;;;12.70;8.05;;;;;;;3.88;89.06;102165.16;8173380;35;20222;-75
2022/01/22 20:45:14;;;;;;;18.27;9.60;;;;;;;3.74;89.01;102173.47;8171042;35;20259;-75
2022/01/22 20:50:23;;;;;;;17.52;10.30;;;;;;;4.11;87.99;102167.22;8172302;35;20646;-75
2022/01/22 20:55:28;;;;;;;17.85;9.40;;;;;;;4.10;88.00;102178.78;8172012;35;20187;-75
2022/01/22 21:00:34;;;;;;;20.60;9.93;;;;;;;4.08;87.67;102177.94;8172670;35;20318;-75
2022/01/22 21:05:37;;;;;;;16.08;9.18;;;;;;;4.00;87.86;102187.91;8172224;35;20830;-75
2022/01/22 21:10:44;;;;;;;15.38;9.13;;;;;;;4.04;87.29;102179.81;8170355;35;20265;-75
2022/01/22 21:15:48;;;;;;;17.17;9.10;;;;;;;4.13;87.13;102174.25;8168356;35;20201;-75
2022/01/22 21:20:52;;;;;;;20.88;9.57;;;;;;;4.12;87.10;102187.59;8169686;35;21659;-75
2022/01/22 21:25:55;;;;;;;14.15;8.15;;;;;;;4.12;86.99;102192.94;8170350;35;20251;-73
2022/01/22 21:31:00;;;;;;;14.45;8.82;;;;;;;4.10;87.01;102182.31;8169765;35;20225;-75
2022/01/22 21:36:10;;;;;;;19.17;8.77;;;;;;;4.05;87.03;102178.91;8169056;35;20199;-75
2022/01/22 21:41:33;;;;;;;18.10;9.95;;;;;;;4.09;87.09;102193.00;8168253;35;20248;-75
2022/01/22 21:46:37;;;;;;;18.48;9.48;;;;;;;4.18;86.89;102196.28;8162286;35;20294;-74
2022/01/22 21:51:40;;;;;;;17.00;10.38;;;;;;;4.28;87.13;102225.31;8169794;35;20279;-74
2022/01/22 21:56:43;;;;;;;19.08;8.52;;;;;;;4.21;87.22;102218.41;8169818;35;20753;-77
2022/01/22 22:01:48;;;;;;;10.90;7.35;;;;;;;4.26;87.08;102224.50;8170243;35;20152;-75
2022/01/22 22:06:51;;;;;;;16.05;7.60;;;;;;;4.22;86.95;102228.13;8168925;35;20199;-74
2022/01/22 22:11:54;;;;;;;14.07;7.10;;;;;;;4.11;86.70;102226.66;8164725;35;20195;-74
2022/01/22 22:16:59;;;;;;;10.10;6.43;;;;;;;4.03;86.86;102219.75;8168776;35;20707;-76
2022/01/22 22:22:02;;;;;;;13.40;7.20;;;;;;;4.05;86.83;102215.25;8166408;35;20254;-75
2022/01/22 22:27:05;;;;;;;14.32;8.27;;;;;;;4.10;86.84;102218.69;8165271;35;20246;-75
2022/01/22 22:32:10;;;;;;;14.45;7.47;;;;;;;3.80;86.91;102205.22;8185558;35;20132;-75
2022/01/22 22:37:13;;;;;;;20.08;9.45;;;;;;;4.07;86.56;102216.97;8169119;35;20191;-75
2022/01/22 22:42:18;;;;;;;11.38;7.40;;;;;;;3.99;86.35;102210.97;8117682;35;20203;-75
2022/01/22 22:47:22;;;;;;;11.93;6.82;;;;;;;4.06;86.47;102214.34;8117734;35;20465;-75
2022/01/22 22:52:25;;;;;;;11.02;6.65;;;;;;;3.99;86.89;102221.59;8118164;35;20187;-75
2022/01/22 22:57:28;;;;;;;10.68;6.88;;;;;;;4.10;86.52;102219.56;8117716;35;20750;-75
2022/01/22 23:02:33;;;;;;;12.50;7.43;;;;;;;3.90;86.73;102209.41;8116321;35;20348;-75
2022/01/22 23:07:36;;;;;;;11.45;6.88;;;;;;;4.06;86.46;102222.31;8118075;35;20230;-76
2022/01/22 23:12:42;;;;;;;11.55;6.70;;;;;;;3.96;86.85;102224.34;8117930;35;20303;-75
2022/01/22 23:28:37;;;;;;;13.13;7.45;;;;;;;3.75;87.39;102204.44;8116877;35;20286;-76
2022/01/22 23:33:46;;;;;;;15.05;8.95;;;;;;;3.90;87.15;102203.22;8117139;35;20331;-75
2022/01/22 23:54:56;;;;;;;10.45;6.35;;;;;;;3.88;87.08;102253.78;8117325;35;20607;-75
